Time;durP1;ratioP1;P1;durP2;ratioP2;P2;SDS_P1;SDS_P2;PMS_P1;PMS_P2;Temp;Humidity;BMP_temperature;BMP_pressure;BME280_temperature;BME280_humidity;BME280_pressure;Samples;Min_cycle;Max_cycle;Signal;HPM_P1;HPM_P2
2021/09/22 00:01:22;;;;;;;5.95;5.65;;;;;;;9.06;89.88;102542.53;4420007;32;20068;-68
2021/09/22 00:03:47;;;;;;;4.40;4.20;;;;;;;9.01;90.20;102537.38;4410167;32;20076;-68
2021/09/22 00:06:12;;;;;;;4.32;4.12;;;;;;;9.02;89.95;102546.06;4422805;32;20100;-68
2021/09/22 00:08:38;;;;;;;4.00;3.80;;;;;;;9.06;89.69;102547.75;4409954;32;20530;-69
2021/09/22 00:11:03;;;;;;;4.00;3.80;;;;;;;9.05;89.76;102540.81;4403603;32;20550;-68
2021/09/22 00:13:29;;;;;;;6.20;5.65;;;;;;;9.04;89.34;102553.03;4415275;32;20056;-68
2021/09/22 00:15:54;;;;;;;4.20;4.00;;;;;;;9.02;89.79;102539.09;4400734;32;20096;-68
2021/09/22 00:18:19;;;;;;;4.07;3.87;;;;;;;9.02;89.80;102548.69;4429208;32;20353;-67
2021/09/22 00:20:45;;;;;;;4.03;3.83;;;;;;;8.99;89.58;102542.63;4410666;32;20189;-68
2021/09/22 00:23:10;;;;;;;3.95;3.80;;;;;;;8.99;90.46;102552.25;4400851;32;20064;-69
2021/09/22 00:25:36;;;;;;;5.62;5.35;;;;;;;8.96;90.07;102549.66;4422783;32;20064;-68
2021/09/22 00:28:02;;;;;;;4.20;4.00;;;;;;;8.96;90.50;102549.66;4413042;32;20076;-68
2021/09/22 00:30:28;;;;;;;5.32;5.12;;;;;;;8.89;90.27;102543.66;4407912;32;20445;-68
2021/09/22 00:32:53;;;;;;;4.20;4.00;;;;;;;8.93;89.71;102552.34;4393163;32;20891;-68
2021/09/22 00:35:19;;;;;;;4.80;4.50;;;;;;;7.94;90.01;102399.37;4412491;32;20098;-68
2021/09/22 00:37:44;;;;;;;4.20;4.00;;;;;;;8.84;90.08;102542.88;4395837;32;20967;-68
2021/09/22 00:40:10;;;;;;;4.07;3.87;;;;;;;8.89;89.82;102551.50;4400527;32;20499;-68
2021/09/22 00:42:35;;;;;;;4.80;4.60;;;;;;;8.90;89.71;102549.75;4394124;32;20441;-67
2021/09/22 00:45:09;;;;;;;4.68;4.43;;;;;;;8.89;89.85;102561.13;4396908;32;20591;-68
2021/09/22 00:47:34;;;;;;;5.10;4.90;;;;;;;8.83;90.52;102553.38;4397134;32;20084;-68
2021/09/22 00:50:00;;;;;;;4.30;4.10;;;;;;;8.86;90.56;102553.31;4394625;32;20084;-68
2021/09/22 00:52:25;;;;;;;5.95;5.65;;;;;;;8.85;90.52;102554.22;4407580;32;20069;-68
2021/09/22 00:54:50;;;;;;;4.15;3.95;;;;;;;8.82;90.29;102549.00;4395398;32;20106;-68
2021/09/22 00:57:17;;;;;;;4.15;3.95;;;;;;;8.79;89.97;102549.94;4409778;32;20077;-68
2021/09/22 00:59:42;;;;;;;4.03;3.83;;;;;;;8.49;90.52;102509.38;4406954;32;20061;-68
2021/09/22 01:02:08;;;;;;;4.07;3.87;;;;;;;8.73;89.77;102552.63;4404354;32;20127;-68
2021/09/22 01:04:33;;;;;;;5.20;5.00;;;;;;;8.71;90.03;102554.41;4407504;32;20061;-68
2021/09/22 01:06:59;;;;;;;4.62;4.40;;;;;;;8.70;91.06;102540.47;4390770;32;20069;-67
2021/09/22 01:09:24;;;;;;;5.80;5.55;;;;;;;8.67;90.14;102553.59;4406502;32;20073;-70
2021/09/22 01:11:49;;;;;;;4.40;4.20;;;;;;;8.65;91.14;102546.66;4396461;32;20069;-67
2021/09/22 01:14:15;;;;;;;4.30;4.10;;;;;;;8.62;90.96;102547.56;4408311;32;20118;-70
2021/09/22 01:16:43;;;;;;;4.07;3.87;;;;;;;8.59;91.47;102535.37;4400814;32;20076;-69
2021/09/22 01:19:09;;;;;;;3.78;3.67;;;;;;;8.57;91.36;102546.75;4390870;32;20057;-69
2021/09/22 01:21:34;;;;;;;4.70;4.50;;;;;;;8.53;91.17;102548.53;4398854;32;20724;-69
2021/09/22 01:23:59;;;;;;;4.53;4.32;;;;;;;8.50;91.17;102556.44;4397438;32;20083;-69
2021/09/22 01:26:25;;;;;;;4.10;3.90;;;;;;;8.44;92.06;102559.16;4410772;32;20057;-69
2021/09/22 01:28:50;;;;;;;3.87;3.78;;;;;;;8.39;92.13;102564.38;4398108;32;20093;-69
2021/09/22 01:31:16;;;;;;;4.37;4.18;;;;;;;8.37;91.97;102567.91;4394907;32;20575;-69
2021/09/22 01:33:43;;;;;;;4.00;3.80;;;;;;;8.36;91.55;102560.97;4388901;32;20065;-69
2021/09/22 01:36:13;;;;;;;4.00;3.80;;;;;;;8.35;91.77;102557.47;4397114;32;20677;-69
2021/09/22 01:38:38;;;;;;;3.78;3.67;;;;;;;8.35;92.59;102556.59;4385080;32;20180;-68
2021/09/22 01:41:05;;;;;;;4.20;4.00;;;;;;;8.33;92.42;102554.00;4382711;32;21165;-69
2021/09/22 01:43:31;;;;;;;5.47;5.28;;;;;;;8.30;91.60;102546.22;4393863;32;20073;-68
2021/09/22 01:45:58;;;;;;;3.60;3.50;;;;;;;8.27;92.56;102548.00;4381607;32;20064;-69
2021/09/22 01:48:23;;;;;;;5.45;5.25;;;;;;;8.23;92.19;102544.56;4385582;32;20119;-67
2021/09/22 01:50:49;;;;;;;4.07;3.87;;;;;;;8.22;91.75;102541.94;4400205;32;20908;-69
2021/09/22 01:53:14;;;;;;;3.95;3.80;;;;;;;8.18;92.73;102542.00;4395005;32;20830;-69
2021/09/22 01:55:39;;;;;;;4.62;4.43;;;;;;;8.18;92.55;102543.75;4392776;32;20160;-69
2021/09/22 01:58:05;;;;;;;4.30;4.10;;;;;;;8.16;92.86;102538.53;4388834;32;20069;-69
2021/09/22 02:00:30;;;;;;;3.80;3.70;;;;;;;8.14;92.35;102537.69;4397074;32;20088;-68
2021/09/22 02:02:56;;;;;;;3.87;3.78;;;;;;;8.03;92.68;102520.41;4379117;32;20152;-69
2021/09/22 02:05:21;;;;;;;5.00;4.80;;;;;;;8.09;92.85;102534.25;4396809;32;20076;-69
2021/09/22 02:07:46;;;;;;;4.07;3.87;;;;;;;8.05;93.23;102529.94;4379218;32;20069;-69
2021/09/22 02:10:12;;;;;;;4.07;3.87;;;;;;;8.01;92.49;102523.03;4395743;32;20065;-69
2021/09/22 02:12:37;;;;;;;4.20;4.00;;;;;;;7.94;93.81;102519.62;4394129;32;20092;-69
2021/09/22 02:15:04;;;;;;;4.12;3.92;;;;;;;7.91;93.53;102517.03;4398952;32;20084;-69
2021/09/22 02:17:29;;;;;;;5.93;5.62;;;;;;;7.94;93.81;102527.47;4390969;32;20077;-66
2021/09/22 02:19:54;;;;;;;4.40;4.00;;;;;;;7.89;93.52;102507.50;4387024;32;20154;-69
2021/09/22 02:22:20;;;;;;;5.03;4.82;;;;;;;7.89;93.49;102523.19;4391097;32;20531;-69
2021/09/22 02:24:45;;;;;;;4.00;3.80;;;;;;;7.85;93.84;102514.50;4392315;32;20069;-69
2021/09/22 02:27:11;;;;;;;4.10;3.90;;;;;;;7.83;93.32;102516.28;4400780;32;20068;-69
2021/09/22 02:29:37;;;;;;;4.50;4.30;;;;;;;7.79;93.42;102511.97;4404145;32;20061;-69
2021/09/22 02:32:03;;;;;;;4.18;3.97;;;;;;;7.76;93.81;102512.00;4399026;32;20090;-68
2021/09/22 02:34:29;;;;;;;5.60;5.35;;;;;;;7.73;93.85;102510.28;4395528;32;20058;-69
2021/09/22 02:36:54;;;;;;;4.10;3.90;;;;;;;7.71;94.06;102517.28;4379839;32;20956;-69
2021/09/22 02:39:19;;;;;;;4.78;4.57;;;;;;;7.71;93.84;102508.56;4394211;32;20147;-69
2021/09/22 02:41:45;;;;;;;4.07;3.87;;;;;;;7.72;93.95;102505.09;4402523;32;20057;-68
2021/09/22 02:44:10;;;;;;;3.70;3.60;;;;;;;7.70;93.34;102499.03;4403958;32;20501;-69
2021/09/22 02:46:35;;;;;;;4.43;4.22;;;;;;;7.72;93.28;102494.63;4393367;32;20363;-69
2021/09/22 02:49:01;;;;;;;4.00;3.80;;;;;;;7.72;94.32;102497.25;4390620;32;20089;-69
2021/09/22 02:51:26;;;;;;;6.28;5.95;;;;;;;7.73;94.38;102496.34;4379322;32;20809;-68
2021/09/22 02:53:51;;;;;;;3.78;3.67;;;;;;;7.71;93.33;102522.50;4401983;32;20433;-69
2021/09/22 02:56:17;;;;;;;4.18;3.97;;;;;;;6.77;94.00;102371.97;4393782;32;20092;-69
2021/09/22 02:58:42;;;;;;;3.60;3.50;;;;;;;7.65;94.24;102516.47;4394569;32;20070;-69
2021/09/22 03:01:07;;;;;;;3.70;3.60;;;;;;;7.61;93.60;102510.41;4403505;32;20468;-68
2021/09/22 03:03:33;;;;;;;5.90;5.50;;;;;;;7.58;94.17;102510.47;4405149;32;20073;-69
2021/09/22 03:05:58;;;;;;;4.00;3.80;;;;;;;7.53;94.65;102514.84;4413706;32;20569;-69
2021/09/22 03:08:24;;;;;;;3.75;3.65;;;;;;;7.48;93.46;102514.06;4386037;32;20329;-69
2021/09/22 03:10:49;;;;;;;4.00;3.80;;;;;;;7.42;93.50;102512.38;4395287;32;20594;-69
2021/09/22 03:13:14;;;;;;;3.80;3.70;;;;;;;7.37;93.17;102514.16;4406828;32;20107;-67
2021/09/22 03:15:40;;;;;;;4.00;3.80;;;;;;;7.31;93.05;102503.75;4383246;32;20082;-69
2021/09/22 03:18:05;;;;;;;4.20;4.00;;;;;;;7.28;93.83;102519.47;4396193;32;20546;-68
2021/09/22 03:20:30;;;;;;;5.55;5.35;;;;;;;7.24;93.39;102512.53;4404198;32;20073;-68
2021/09/22 03:22:56;;;;;;;3.95;3.78;;;;;;;7.08;93.37;102494.41;4407190;32;20478;-69
2021/09/22 03:25:21;;;;;;;5.32;5.12;;;;;;;7.16;92.82;102505.63;4392953;32;20579;-69
2021/09/22 03:27:46;;;;;;;3.97;3.80;;;;;;;7.12;93.35;102498.72;4410541;32;20127;-68
2021/09/22 03:30:12;;;;;;;4.07;3.87;;;;;;;6.83;92.57;102453.72;4409940;32;20059;-69
2021/09/22 03:32:38;;;;;;;4.10;3.90;;;;;;;7.11;93.18;102510.00;4405286;32;20069;-68
2021/09/22 03:35:03;;;;;;;3.80;3.70;;;;;;;7.10;93.33;102516.12;4419122;32;20092;-68
2021/09/22 03:37:29;;;;;;;5.18;4.97;;;;;;;7.12;92.88;102508.28;4407597;32;20115;-68
2021/09/22 03:39:54;;;;;;;4.10;3.90;;;;;;;7.12;93.48;102503.94;4414037;32;20080;-69
2021/09/22 03:42:19;;;;;;;4.80;4.60;;;;;;;7.11;92.76;102499.56;4409398;32;20061;-68
2021/09/22 03:44:45;;;;;;;4.00;3.80;;;;;;;7.11;92.68;102499.56;4411670;32;20480;-68
2021/09/22 03:47:10;;;;;;;3.65;3.55;;;;;;;7.10;92.99;102497.84;4415965;32;20068;-68
2021/09/22 03:49:35;;;;;;;4.37;4.18;;;;;;;7.08;93.94;102502.22;4408953;32;20302;-68
2021/09/22 03:52:01;;;;;;;3.80;3.70;;;;;;;7.09;93.75;102518.75;4411602;32;20514;-68
2021/09/22 03:54:26;;;;;;;6.15;5.85;;;;;;;7.09;93.70;102496.09;4406355;32;20491;-69
2021/09/22 03:56:51;;;;;;;3.72;3.62;;;;;;;7.08;93.37;102498.75;4418771;32;20076;-69
2021/09/22 03:59:17;;;;;;;4.05;3.87;;;;;;;7.08;94.19;102506.59;4432825;32;20107;-68
2021/09/22 04:01:42;;;;;;;3.85;3.72;;;;;;;7.02;93.58;102498.81;4419267;32;20961;-69
2021/09/22 04:04:07;;;;;;;4.10;3.90;;;;;;;7.03;93.66;102501.37;4416997;32;20092;-68
2021/09/22 04:06:33;;;;;;;5.55;5.35;;;;;;;7.01;93.94;102502.28;4422829;32;20065;-68
2021/09/22 04:08:58;;;;;;;3.85;3.72;;;;;;;6.95;93.87;102495.38;4416768;32;20080;-68
2021/09/22 04:11:24;;;;;;;5.65;5.43;;;;;;;6.97;93.74;102506.66;4421564;32;20065;-69
2021/09/22 04:13:49;;;;;;;3.80;3.60;;;;;;;6.93;94.09;102511.03;4417610;32;20094;-68
2021/09/22 04:16:14;;;;;;;3.80;3.70;;;;;;;6.92;94.54;102505.84;4401102;32;20555;-68
2021/09/22 04:18:40;;;;;;;3.60;3.50;;;;;;;6.92;95.03;102509.31;4404647;32;20068;-67
2021/09/22 04:21:05;;;;;;;3.80;3.65;;;;;;;7.01;94.93;102524.03;4429519;32;20069;-68
2021/09/22 04:23:31;;;;;;;4.87;4.68;;;;;;;7.02;95.62;102523.16;4406730;32;20079;-68
2021/09/22 04:25:56;;;;;;;3.80;3.70;;;;;;;7.01;94.85;102524.03;4422558;32;20583;-67
2021/09/22 04:28:21;;;;;;;5.47;5.28;;;;;;;6.83;94.75;102498.94;4403084;32;20080;-68
2021/09/22 04:30:47;;;;;;;4.05;3.85;;;;;;;6.88;95.24;102510.22;4383189;32;20062;-68
2021/09/22 04:33:12;;;;;;;3.60;3.50;;;;;;;6.99;95.13;102528.41;4396313;32;20080;-68
2021/09/22 04:35:38;;;;;;;3.85;3.70;;;;;;;6.99;95.81;102520.56;4406490;32;20346;-68
2021/09/22 04:38:03;;;;;;;3.72;3.62;;;;;;;6.99;95.48;102518.81;4398674;32;20064;-68
2021/09/22 04:40:30;;;;;;;5.45;5.25;;;;;;;7.01;95.21;102524.03;4404714;32;20662;-67
2021/09/22 04:42:56;;;;;;;3.53;3.42;;;;;;;7.05;95.46;102525.72;4406563;32;20180;-67
2021/09/22 04:45:22;;;;;;;4.85;4.65;;;;;;;6.94;96.08;102520.59;4403070;32;20066;-68
2021/09/22 04:47:48;;;;;;;3.67;3.58;;;;;;;7.06;96.60;102522.25;4400910;32;20158;-67
2021/09/22 04:50:13;;;;;;;4.10;3.90;;;;;;;7.05;95.87;102524.87;4409279;32;20065;-68
2021/09/22 04:52:39;;;;;;;3.62;3.53;;;;;;;7.04;96.04;102524.00;4400647;32;20077;-68
2021/09/22 04:55:04;;;;;;;3.70;3.60;;;;;;;7.06;95.89;102524.00;4407379;32;20080;-68
2021/09/22 04:57:30;;;;;;;4.37;4.18;;;;;;;7.03;96.22;102524.03;4400773;32;20076;-67
2021/09/22 04:59:55;;;;;;;4.75;4.32;;;;;;;7.03;96.49;102530.09;4411400;32;20081;-68
2021/09/22 05:02:20;;;;;;;4.43;4.22;;;;;;;5.35;96.48;102247.06;4407034;32;20102;-68
2021/09/22 05:04:46;;;;;;;4.30;4.00;;;;;;;7.01;96.01;102523.16;4410488;32;20062;-68
2021/09/22 05:07:11;;;;;;;3.60;3.50;;;;;;;7.04;96.37;102526.62;4402252;32;20106;-68
2021/09/22 05:09:37;;;;;;;3.60;3.50;;;;;;;7.06;96.85;102531.84;4408289;32;20610;-67
2021/09/22 05:12:02;;;;;;;3.85;3.70;;;;;;;7.13;96.83;102528.28;4398006;32;20104;-67
2021/09/22 05:14:27;;;;;;;4.95;4.75;;;;;;;7.08;96.95;102519.66;4406559;32;20139;-68
2021/09/22 05:16:53;;;;;;;3.72;3.53;;;;;;;7.13;96.28;102533.50;4397719;32;20916;-67
2021/09/22 05:19:19;;;;;;;3.72;3.60;;;;;;;7.11;96.94;102528.28;4407744;32;20069;-67
2021/09/22 05:21:45;;;;;;;3.85;3.70;;;;;;;7.16;96.72;102539.56;4393321;32;20218;-68
2021/09/22 05:24:11;;;;;;;3.60;3.50;;;;;;;7.16;97.39;102538.72;4396135;32;20435;-68
2021/09/22 05:26:36;;;;;;;4.32;4.12;;;;;;;7.12;97.48;102529.19;4394666;32;20072;-67
2021/09/22 05:29:01;;;;;;;4.50;4.22;;;;;;;7.05;96.70;102511.81;4397785;32;20096;-68
2021/09/22 05:31:27;;;;;;;3.70;3.60;;;;;;;7.18;96.66;102534.34;4404681;32;20556;-66
2021/09/22 05:33:52;;;;;;;3.75;3.60;;;;;;;6.09;97.54;102349.94;4392987;32;20391;-67
2021/09/22 05:36:18;;;;;;;3.70;3.60;;;;;;;7.03;97.39;102508.34;4407154;32;20065;-67
2021/09/22 05:38:43;;;;;;;3.75;3.58;;;;;;;7.24;97.13;102543.88;4396518;32;20064;-67
2021/09/22 05:41:08;;;;;;;4.00;3.80;;;;;;;7.26;97.21;102548.22;4405059;32;20076;-67
2021/09/22 05:43:34;;;;;;;5.35;5.15;;;;;;;7.27;97.47;102542.09;4396641;32;20065;-67
2021/09/22 05:45:59;;;;;;;3.85;3.65;;;;;;;7.30;97.23;102546.44;4411384;32;20447;-69
2021/09/22 05:48:24;;;;;;;5.15;4.95;;;;;;;7.33;97.60;102549.00;4400694;32;20330;-69
2021/09/22 05:50:50;;;;;;;3.90;3.70;;;;;;;7.03;97.54;102501.37;4394237;32;20560;-67
2021/09/22 05:53:16;;;;;;;3.78;3.67;;;;;;;7.41;96.76;102557.62;4406042;32;20515;-67
2021/09/22 05:55:41;;;;;;;3.92;3.72;;;;;;;7.44;96.42;102557.62;4393258;32;20583;-68
2021/09/22 05:58:07;;;;;;;6.57;4.40;;;;;;;7.50;96.37;102552.34;4391858;32;20166;-68
2021/09/22 06:00:32;;;;;;;5.35;5.15;;;;;;;7.57;96.39;102551.38;4396689;32;20585;-67
2021/09/22 06:02:58;;;;;;;3.60;3.50;;;;;;;7.67;96.01;102560.00;4407155;32;20073;-67
2021/09/22 06:05:23;;;;;;;5.05;4.85;;;;;;;7.77;96.11;102555.53;4402862;32;20137;-66
2021/09/22 06:07:48;;;;;;;3.60;3.50;;;;;;;7.83;96.70;102555.47;4394943;32;20073;-68
2021/09/22 06:10:14;;;;;;;3.70;3.60;;;;;;;7.92;96.62;102560.62;4410196;32;20079;-66
2021/09/22 06:12:39;;;;;;;4.28;4.07;;;;;;;8.01;96.10;102564.88;4393629;32;21194;-67
2021/09/22 06:15:05;;;;;;;4.10;3.90;;;;;;;8.09;95.35;102570.00;4409167;32;20263;-67
2021/09/22 06:17:30;;;;;;;5.05;4.85;;;;;;;8.15;95.30;102565.56;4411491;32;20588;-66
2021/09/22 06:19:56;;;;;;;3.85;3.65;;;;;;;8.23;95.12;102565.47;4397987;32;20097;-68
2021/09/22 06:22:24;;;;;;;5.03;4.82;;;;;;;8.27;94.93;102577.62;4405935;32;20126;-66
2021/09/22 06:24:51;;;;;;;3.80;3.70;;;;;;;8.35;93.92;102570.53;4408911;32;20169;-67
2021/09/22 06:27:16;;;;;;;3.97;3.80;;;;;;;8.37;94.60;102566.16;4404734;32;20099;-66
2021/09/22 06:29:41;;;;;;;3.87;3.75;;;;;;;7.59;93.83;102434.66;4403676;32;20065;-67
2021/09/22 06:32:07;;;;;;;5.93;5.62;;;;;;;8.47;92.79;102569.56;4411031;32;20167;-66
2021/09/22 06:34:32;;;;;;;5.85;5.55;;;;;;;8.59;93.10;102571.16;4392104;32;20068;-68
2021/09/22 06:36:58;;;;;;;4.30;4.10;;;;;;;8.69;93.03;102577.12;4407049;32;20081;-70
2021/09/22 06:39:23;;;;;;;5.70;5.40;;;;;;;8.77;92.31;102586.59;4416494;32;20087;-70
2021/09/22 06:41:49;;;;;;;4.72;4.53;;;;;;;8.88;92.11;102582.94;4390223;32;20095;-69
2021/09/22 06:44:14;;;;;;;4.20;4.00;;;;;;;8.93;92.32;102587.22;4407953;32;20087;-68
2021/09/22 06:46:39;;;;;;;4.40;4.20;;;;;;;8.99;91.95;102587.13;4394217;32;20068;-68
2021/09/22 06:49:05;;;;;;;4.00;3.80;;;;;;;9.10;92.20;102583.47;4409644;32;20072;-68
2021/09/22 06:51:30;;;;;;;5.70;5.45;;;;;;;9.16;91.46;102586.00;4403054;32;20069;-70
2021/09/22 06:53:56;;;;;;;4.18;3.97;;;;;;;9.27;91.76;102581.47;4404604;32;20087;-70
2021/09/22 06:56:24;;;;;;;4.37;4.18;;;;;;;9.40;91.75;102579.50;4386772;32;20574;-68
2021/09/22 06:58:49;;;;;;;4.30;4.10;;;;;;;9.49;91.09;102574.09;4390181;32;20104;-69
2021/09/22 07:01:14;;;;;;;4.00;3.80;;;;;;;9.57;90.64;102574.84;4396244;32;20448;-68
2021/09/22 07:03:40;;;;;;;4.37;4.18;;;;;;;9.61;91.00;102573.03;4403517;32;20068;-67
2021/09/22 07:06:05;;;;;;;4.55;4.35;;;;;;;9.72;90.36;102575.44;4407575;32;20069;-66
2021/09/22 07:08:31;;;;;;;5.62;5.43;;;;;;;9.82;90.35;102579.63;4386697;32;20077;-67
2021/09/22 07:10:56;;;;;;;4.20;4.00;;;;;;;9.94;89.92;102576.78;4403138;32;20571;-68
2021/09/22 07:13:22;;;;;;;5.12;4.93;;;;;;;10.05;88.84;102583.59;4385018;32;20068;-69
2021/09/22 07:15:48;;;;;;;4.45;4.22;;;;;;;9.81;88.07;102538.56;4394622;32;20220;-68
2021/09/22 07:18:16;;;;;;;4.62;4.40;;;;;;;10.19;88.28;102582.41;4396133;32;20068;-69
2021/09/22 07:20:41;;;;;;;4.22;4.03;;;;;;;10.30;87.16;102584.84;4391111;32;20128;-69
2021/09/22 07:23:07;;;;;;;4.18;3.97;;;;;;;10.37;86.21;102583.81;4404766;32;20150;-69
2021/09/22 07:25:32;;;;;;;5.37;5.18;;;;;;;10.56;86.29;102586.94;4394660;32;20146;-68
2021/09/22 07:27:57;;;;;;;4.12;3.92;;;;;;;10.71;85.95;102585.72;4393693;32;20081;-69
2021/09/22 07:30:23;;;;;;;5.70;5.45;;;;;;;9.85;84.41;102410.91;4424344;32;20069;-67
2021/09/22 07:32:51;;;;;;;4.30;4.10;;;;;;;11.06;84.42;102585.78;4391360;32;20464;-69
2021/09/22 07:35:17;;;;;;;4.85;4.10;;;;;;;10.98;83.42;102593.84;4410481;32;20526;-69
2021/09/22 07:37:42;;;;;;;4.30;4.10;;;;;;;11.17;82.67;102596.91;4403769;32;20108;-67
2021/09/22 07:40:08;;;;;;;5.00;4.80;;;;;;;11.26;81.77;102598.44;4407895;32;20085;-67
2021/09/22 07:42:33;;;;;;;5.72;5.43;;;;;;;11.28;82.02;102599.28;4404953;32;20604;-68
2021/09/22 07:44:59;;;;;;;4.50;4.30;;;;;;;11.49;81.80;102596.13;4408929;32;20061;-67
2021/09/22 07:47:24;;;;;;;4.68;4.47;;;;;;;11.70;81.69;102597.31;4413832;32;20080;-69
2021/09/22 07:49:49;;;;;;;4.12;3.92;;;;;;;11.87;80.69;102607.38;4393206;32;20537;-69
2021/09/22 07:52:15;;;;;;;4.40;4.20;;;;;;;12.05;79.97;102603.44;4406808;32;20075;-70
2021/09/22 07:54:40;;;;;;;4.32;4.12;;;;;;;11.97;80.11;102598.38;4403685;32;20080;-69
2021/09/22 07:57:06;;;;;;;4.50;4.30;;;;;;;11.97;79.78;102595.75;4411507;32;20088;-69
2021/09/22 07:59:31;;;;;;;6.05;5.75;;;;;;;12.00;80.70;102602.69;4407608;32;20610;-71
2021/09/22 08:02:01;;;;;;;4.50;4.30;;;;;;;12.14;80.68;102600.53;4412030;32;20497;-73
2021/09/22 08:04:26;;;;;;;5.72;5.43;;;;;;;12.35;79.80;102596.44;4405941;32;20081;-67
2021/09/22 08:06:52;;;;;;;4.95;4.75;;;;;;;12.54;78.54;102598.50;4404632;32;20688;-70
2021/09/22 08:09:18;;;;;;;5.25;4.95;;;;;;;12.67;78.39;102598.97;4425536;32;20092;-69
2021/09/22 08:11:44;;;;;;;5.30;5.07;;;;;;;12.83;78.23;102591.47;4404736;32;20190;-69
2021/09/22 08:14:09;;;;;;;5.22;4.93;;;;;;;12.86;77.20;102588.75;4408867;32;20571;-68
2021/09/22 08:16:35;;;;;;;6.25;5.95;;;;;;;12.91;77.77;102595.63;4406823;32;20141;-66
2021/09/22 08:19:00;;;;;;;5.03;4.82;;;;;;;12.81;78.36;102588.03;4410296;32;20593;-69
2021/09/22 08:21:25;;;;;;;6.45;6.05;;;;;;;12.97;77.39;102594.56;4390028;32;20072;-66
2021/09/22 08:23:51;;;;;;;4.80;4.60;;;;;;;12.77;77.44;102556.53;4385781;32;20089;-69
2021/09/22 08:26:16;;;;;;;5.10;4.90;;;;;;;13.11;77.21;102584.44;4390299;32;20079;-70
2021/09/22 08:28:41;;;;;;;5.07;4.70;;;;;;;13.34;76.36;102596.88;4382527;32;20124;-69
2021/09/22 08:31:07;;;;;;;5.87;5.57;;;;;;;13.34;75.55;102588.09;4392343;32;20069;-69
2021/09/22 08:33:32;;;;;;;5.50;5.20;;;;;;;12.55;74.80;102444.84;4386609;32;20615;-69
2021/09/22 08:35:57;;;;;;;5.80;5.50;;;;;;;13.34;74.79;102586.31;4390726;32;20607;-70
2021/09/22 08:38:23;;;;;;;6.40;6.10;;;;;;;13.51;74.80;102576.97;4387310;32;20065;-69
2021/09/22 08:40:48;;;;;;;5.10;4.80;;;;;;;13.55;74.69;102570.66;4394026;32;20084;-69
2021/09/22 08:43:14;;;;;;;5.45;5.15;;;;;;;13.64;74.28;102554.53;4373470;32;20083;-69
2021/09/22 08:45:39;;;;;;;5.78;5.47;;;;;;;13.88;74.15;102570.41;4394244;32;20066;-69
2021/09/22 08:48:05;;;;;;;5.32;5.00;;;;;;;14.05;73.20;102575.94;4379624;32;20696;-69
2021/09/22 08:50:30;;;;;;;5.60;5.30;;;;;;;14.24;72.50;102569.97;4396740;32;20322;-67
2021/09/22 08:52:55;;;;;;;5.60;5.30;;;;;;;14.21;70.97;102556.88;4376146;32;20069;-71
2021/09/22 08:55:21;;;;;;;6.00;5.70;;;;;;;14.16;71.33;102567.62;4380045;32;20940;-70
2021/09/22 08:57:46;;;;;;;5.07;4.87;;;;;;;14.16;71.52;102565.84;4392421;32;20081;-68
2021/09/22 09:00:12;;;;;;;4.97;4.78;;;;;;;14.24;71.45;102568.19;4382362;32;20095;-69
2021/09/22 09:02:39;;;;;;;5.10;4.90;;;;;;;14.43;70.78;102564.84;4391027;32;20371;-68
2021/09/22 09:05:12;;;;;;;5.55;5.25;;;;;;;14.59;70.56;102566.00;4391912;32;20077;-68
2021/09/22 09:07:56;;;;;;;;;;;;;;;14.74;69.65;102560.12;4391105;32;20315;-68
2021/09/22 09:10:33;;;;;;;6.30;6.00;;;;;;;13.70;69.69;102374.91;4402300;32;19976;-68
2021/09/22 09:13:07;;;;;;;5.10;4.90;;;;;;;14.87;69.29;102557.81;4395066;32;20417;-68
2021/09/22 09:15:44;;;;;;;4.70;4.50;;;;;;;15.10;69.94;102554.25;4400741;32;20211;-68
2021/09/22 09:18:16;;;;;;;5.12;4.93;;;;;;;15.15;68.58;102536.41;4397775;32;20081;-68
2021/09/22 09:20:41;;;;;;;5.80;5.07;;;;;;;15.33;66.78;102544.47;4399518;32;20199;-68
2021/09/22 09:23:09;;;;;;;5.43;5.12;;;;;;;15.53;66.43;102548.91;4405307;32;20072;-68
2021/09/22 09:25:35;;;;;;;8.48;7.30;;;;;;;15.71;66.08;102545.44;4390002;32;20086;-68
2021/09/22 09:28:34;;;;;;;5.75;5.25;;;;;;;15.37;66.13;102540.78;4408325;32;20057;-68
2021/09/22 09:31:01;;;;;;;5.18;4.87;;;;;;;15.54;66.07;102534.78;4412010;32;20138;-68
2021/09/22 09:33:37;;;;;;;7.90;7.50;;;;;;;15.89;66.01;102543.81;4385547;32;20084;-68
2021/09/22 09:36:15;;;;;;;6.68;5.95;;;;;;;16.06;64.79;102534.25;4403031;32;20103;-68
2021/09/22 09:38:46;;;;;;;5.97;5.57;;;;;;;15.90;65.46;102534.94;4387943;32;20346;-69
2021/09/22 09:41:48;;;;;;;5.90;5.60;;;;;;;15.91;64.90;102533.16;4387404;32;20590;-69
2021/09/22 09:44:13;;;;;;;5.28;5.05;;;;;;;15.10;64.32;102355.94;4390524;32;20084;-69
2021/09/22 09:46:39;;;;;;;6.03;5.70;;;;;;;16.28;64.76;102529.69;4385266;32;20751;-68
2021/09/22 09:49:05;;;;;;;5.75;5.35;;;;;;;16.47;64.62;102524.34;4390208;32;20641;-68
2021/09/22 09:51:33;;;;;;;6.20;5.90;;;;;;;16.61;62.67;102526.34;4400190;32;20450;-69
2021/09/22 09:54:12;;;;;;;6.07;5.65;;;;;;;16.87;62.76;102518.94;4388548;32;20095;-68
2021/09/22 09:56:38;;;;;;;5.57;5.30;;;;;;;17.08;61.51;102519.66;4396471;32;20170;-69
2021/09/22 09:59:04;;;;;;;5.82;5.43;;;;;;;17.20;60.87;102513.72;4376176;32;20097;-69
2021/09/22 10:01:49;;;;;;;5.55;5.25;;;;;;;17.40;59.06;102507.41;4395440;32;20068;-68
2021/09/22 10:04:16;;;;;;;6.12;5.82;;;;;;;17.46;59.32;102503.53;4402333;32;20141;-68
2021/09/22 10:06:43;;;;;;;5.20;5.00;;;;;;;17.66;57.86;102514.00;4395058;32;22149;-69
2021/09/22 10:09:08;;;;;;;6.93;5.95;;;;;;;17.82;57.84;102494.56;4404377;32;20087;-68
2021/09/22 10:11:34;;;;;;;6.53;6.22;;;;;;;18.13;57.18;102496.44;4390682;32;20654;-68
2021/09/22 10:14:00;;;;;;;5.40;5.10;;;;;;;18.10;55.88;102488.63;4397281;32;20084;-69
2021/09/22 10:16:26;;;;;;;6.97;6.53;;;;;;;18.06;55.37;102493.28;4394660;32;20212;-68
2021/09/22 10:18:51;;;;;;;5.50;5.22;;;;;;;18.20;52.67;102494.28;4396815;32;20272;-69
2021/09/22 10:21:18;;;;;;;6.43;5.95;;;;;;;18.14;53.64;102471.56;4384243;32;20313;-70
2021/09/22 10:23:43;;;;;;;6.30;5.90;;;;;;;18.39;50.77;102492.31;4389859;32;20068;-70
2021/09/22 10:26:09;;;;;;;6.32;5.93;;;;;;;18.36;52.47;102484.50;4400929;32;20100;-69
2021/09/22 10:28:39;;;;;;;6.85;6.45;;;;;;;18.47;51.73;102486.56;4388991;32;20142;-69
2021/09/22 10:31:04;;;;;;;6.22;5.85;;;;;;;17.73;51.80;102304.72;4407046;32;20092;-71
2021/09/22 10:33:34;;;;;;;5.70;5.30;;;;;;;19.00;51.41;102485.25;4406969;32;20069;-69
2021/09/22 10:36:04;;;;;;;6.15;5.75;;;;;;;19.29;51.58;102491.50;4408702;32;20213;-70
2021/09/22 10:38:29;;;;;;;7.43;6.97;;;;;;;18.63;52.01;102478.56;4393754;32;20901;-70
2021/09/22 10:41:01;;;;;;;5.82;5.45;;;;;;;18.71;49.73;102455.88;4417016;32;20072;-74
2021/09/22 10:43:31;;;;;;;7.40;6.90;;;;;;;18.58;51.53;102481.47;4391373;32;20096;-71
2021/09/22 10:46:05;;;;;;;5.87;5.53;;;;;;;18.89;50.98;102466.44;4410350;32;20133;-72
2021/09/22 10:48:30;;;;;;;7.20;6.75;;;;;;;19.18;51.44;102471.81;4431438;32;20077;-71
2021/09/22 10:50:58;;;;;;;6.03;5.62;;;;;;;19.02;51.01;102470.06;4408273;32;20088;-71
2021/09/22 10:53:33;;;;;;;7.12;6.72;;;;;;;19.42;51.54;102464.97;4402174;32;20135;-71
2021/09/22 10:56:31;;;;;;;6.37;5.78;;;;;;;19.69;49.12;102461.56;4402241;32;20673;-70
2021/09/22 10:58:58;;;;;;;5.82;5.50;;;;;;;19.75;49.25;102461.22;4418245;32;20085;-71
2021/09/22 11:01:44;;;;;;;8.15;6.68;;;;;;;19.88;49.71;102462.12;4401608;32;20100;-69
2021/09/22 11:04:10;;;;;;;5.87;5.57;;;;;;;19.46;48.07;102436.34;4405872;32;20716;-71
2021/09/22 11:06:44;;;;;;;7.45;7.05;;;;;;;19.70;49.19;102450.81;4404212;32;20245;-71
2021/09/22 11:09:23;;;;;;;7.85;6.60;;;;;;;19.39;49.17;102438.56;4423121;32;20206;-70
2021/09/22 11:12:03;;;;;;;5.80;5.50;;;;;;;19.45;49.08;102435.50;4411594;32;20463;-71
2021/09/22 11:14:51;;;;;;;7.37;6.97;;;;;;;19.13;49.46;102433.03;4410263;32;20097;-70
2021/09/22 11:17:16;;;;;;;5.70;5.37;;;;;;;19.47;49.18;102430.94;4409111;32;20396;-72
2021/09/22 11:19:47;;;;;;;5.40;5.13;;;;;;;19.45;49.41;102426.66;4420560;32;20069;-71
2021/09/22 11:22:20;;;;;;;6.70;6.30;;;;;;;19.64;49.81;102421.88;4411075;32;20247;-70
2021/09/22 11:24:46;;;;;;;5.95;5.45;;;;;;;19.84;49.25;102425.12;4406082;32;20172;-71
2021/09/22 11:27:17;;;;;;;6.40;5.93;;;;;;;19.64;48.82;102421.03;4412164;32;20133;-69
2021/09/22 11:29:50;;;;;;;7.10;5.85;;;;;;;19.80;49.38;102419.13;4407534;32;20061;-71